sensor_id;sensor_type;location;lat;lon;timestamp;temperature;humidity
63976;DHT22;50167;47.958;21.780;2023-05-15T00:01:21;19.24;61.97
63976;DHT22;50167;47.958;21.780;2023-05-15T00:03:48;19.46;61.12
63976;DHT22;50167;47.958;21.780;2023-05-15T00:06:14;19.55;60.74
63976;DHT22;50167;47.958;21.780;2023-05-15T00:08:41;19.55;60.30
63976;DHT22;50167;47.958;21.780;2023-05-15T00:11:07;19.60;60.06
63976;DHT22;50167;47.958;21.780;2023-05-15T00:13:33;19.56;59.66
63976;DHT22;50167;47.958;21.780;2023-05-15T00:16:11;19.55;59.67
63976;DHT22;50167;47.958;21.780;2023-05-15T00:22:37;19.87;59.04
63976;DHT22;50167;47.958;21.780;2023-05-15T00:25:04;19.53;58.23
63976;DHT22;50167;47.958;21.780;2023-05-15T00:27:31;18.71;59.54
63976;DHT22;50167;47.958;21.780;2023-05-15T00:29:57;18.04;61.16
63976;DHT22;50167;47.958;21.780;2023-05-15T00:32:23;17.47;62.09
63976;DHT22;50167;47.958;21.780;2023-05-15T00:34:49;17.66;64.21
63976;DHT22;50167;47.958;21.780;2023-05-15T00:37:15;18.48;63.56
63976;DHT22;50167;47.958;21.780;2023-05-15T00:39:41;19.07;61.66
63976;DHT22;50167;47.958;21.780;2023-05-15T00:42:08;19.42;59.71
63976;DHT22;50167;47.958;21.780;2023-05-15T00:44:37;19.42;58.68
63976;DHT22;50167;47.958;21.780;2023-05-15T00:47:06;18.67;59.46
63976;DHT22;50167;47.958;21.780;2023-05-15T00:49:33;18.00;60.24
63976;DHT22;50167;47.958;21.780;2023-05-15T00:52:00;17.40;61.79
63976;DHT22;50167;47.958;21.780;2023-05-15T00:54:49;16.91;63.24
63976;DHT22;50167;47.958;21.780;2023-05-15T00:57:17;17.23;64.89
63976;DHT22;50167;47.958;21.780;2023-05-15T00:59:44;18.15;62.80
63976;DHT22;50167;47.958;21.780;2023-05-15T01:02:13;18.53;61.28
63976;DHT22;50167;47.958;21.780;2023-05-15T01:04:40;18.80;60.45
63976;DHT22;50167;47.958;21.780;2023-05-15T01:07:07;18.97;60.14
63976;DHT22;50167;47.958;21.780;2023-05-15T01:09:33;19.18;59.11
63976;DHT22;50167;47.958;21.780;2023-05-15T01:12:01;18.87;58.09
63976;DHT22;50167;47.958;21.780;2023-05-15T01:14:29;18.14;59.41
63976;DHT22;50167;47.958;21.780;2023-05-15T01:16:55;17.54;60.22
63976;DHT22;50167;47.958;21.780;2023-05-15T01:19:21;17.08;62.48
63976;DHT22;50167;47.958;21.780;2023-05-15T01:27:58;18.90;60.75
63976;DHT22;50167;47.958;21.780;2023-05-15T01:30:31;19.14;60.48
63976;DHT22;50167;47.958;21.780;2023-05-15T01:33:14;19.22;59.02
63976;DHT22;50167;47.958;21.780;2023-05-15T01:38:45;17.90;61.51
63976;DHT22;50167;47.958;21.780;2023-05-15T01:41:34;17.12;64.69
63976;DHT22;50167;47.958;21.780;2023-05-15T01:44:13;17.37;66.49
63976;DHT22;50167;47.958;21.780;2023-05-15T01:46:43;18.09;65.84
63976;DHT22;50167;47.958;21.780;2023-05-15T01:49:12;18.56;64.40
63976;DHT22;50167;47.958;21.780;2023-05-15T01:51:41;18.69;63.47
63976;DHT22;50167;47.958;21.780;2023-05-15T01:54:09;18.86;62.97
63976;DHT22;50167;47.958;21.780;2023-05-15T01:56:37;19.02;62.81
63976;DHT22;50167;47.958;21.780;2023-05-15T01:59:06;19.21;62.23
63976;DHT22;50167;47.958;21.780;2023-05-15T02:01:33;19.28;61.75
63976;DHT22;50167;47.958;21.780;2023-05-15T02:04:02;19.31;60.79
63976;DHT22;50167;47.958;21.780;2023-05-15T02:06:28;19.32;61.19
63976;DHT22;50167;47.958;21.780;2023-05-15T02:08:56;19.38;60.99
63976;DHT22;50167;47.958;21.780;2023-05-15T02:11:23;19.44;61.02
63976;DHT22;50167;47.958;21.780;2023-05-15T02:13:49;19.48;60.78
63976;DHT22;50167;47.958;21.780;2023-05-15T02:16:16;19.55;60.74
63976;DHT22;50167;47.958;21.780;2023-05-15T02:18:43;19.59;60.51
63976;DHT22;50167;47.958;21.780;2023-05-15T02:21:09;19.56;60.06
63976;DHT22;50167;47.958;21.780;2023-05-15T02:23:38;19.50;60.20
63976;DHT22;50167;47.958;21.780;2023-05-15T02:29:26;19.57;60.97
63976;DHT22;50167;47.958;21.780;2023-05-15T02:37:25;19.84;60.56
63976;DHT22;50167;47.958;21.780;2023-05-15T02:39:52;19.84;60.74
63976;DHT22;50167;47.958;21.780;2023-05-15T02:42:20;19.83;60.43
63976;DHT22;50167;47.958;21.780;2023-05-15T02:44:47;19.78;60.71
63976;DHT22;50167;47.958;21.780;2023-05-15T02:47:15;19.67;60.31
63976;DHT22;50167;47.958;21.780;2023-05-15T02:49:42;19.50;60.99
63976;DHT22;50167;47.958;21.780;2023-05-15T02:52:09;19.38;61.67
63976;DHT22;50167;47.958;21.780;2023-05-15T02:54:35;19.32;61.82
63976;DHT22;50167;47.958;21.780;2023-05-15T02:57:01;19.32;61.85
63976;DHT22;50167;47.958;21.780;2023-05-15T02:59:28;19.35;61.50
63976;DHT22;50167;47.958;21.780;2023-05-15T03:01:54;19.34;61.64
63976;DHT22;50167;47.958;21.780;2023-05-15T03:04:20;19.25;62.13
63976;DHT22;50167;47.958;21.780;2023-05-15T03:06:46;19.24;62.38
63976;DHT22;50167;47.958;21.780;2023-05-15T03:09:12;19.22;62.26
63976;DHT22;50167;47.958;21.780;2023-05-15T03:11:38;19.24;62.13
63976;DHT22;50167;47.958;21.780;2023-05-15T03:14:04;19.21;62.46
63976;DHT22;50167;47.958;21.780;2023-05-15T03:16:30;19.27;62.46
63976;DHT22;50167;47.958;21.780;2023-05-15T03:18:56;19.31;62.74
63976;DHT22;50167;47.958;21.780;2023-05-15T03:21:23;19.39;62.51
63976;DHT22;50167;47.958;21.780;2023-05-15T03:23:49;19.42;61.97
63976;DHT22;50167;47.958;21.780;2023-05-15T03:26:16;19.42;61.67
63976;DHT22;50167;47.958;21.780;2023-05-15T03:28:42;19.44;61.88
63976;DHT22;50167;47.958;21.780;2023-05-15T03:31:08;19.49;61.68
63976;DHT22;50167;47.958;21.780;2023-05-15T03:33:34;19.55;61.61
63976;DHT22;50167;47.958;21.780;2023-05-15T03:36:00;19.60;61.31
63976;DHT22;50167;47.958;21.780;2023-05-15T03:38:26;19.60;60.74
63976;DHT22;50167;47.958;21.780;2023-05-15T03:40:52;19.56;60.63
63976;DHT22;50167;47.958;21.780;2023-05-15T03:43:18;19.50;60.58
63976;DHT22;50167;47.958;21.780;2023-05-15T03:45:45;19.48;60.95
63976;DHT22;50167;47.958;21.780;2023-05-15T03:48:11;19.39;61.19
63976;DHT22;50167;47.958;21.780;2023-05-15T03:50:37;19.39;61.16
63976;DHT22;50167;47.958;21.780;2023-05-15T03:53:04;19.36;61.28
63976;DHT22;50167;47.958;21.780;2023-05-15T03:55:30;19.31;61.47
63976;DHT22;50167;47.958;21.780;2023-05-15T03:57:58;19.18;61.77
63976;DHT22;50167;47.958;21.780;2023-05-15T04:00:24;19.18;62.28
63976;DHT22;50167;47.958;21.780;2023-05-15T04:02:50;19.21;62.10
63976;DHT22;50167;47.958;21.780;2023-05-15T04:05:17;19.22;62.20
63976;DHT22;50167;47.958;21.780;2023-05-15T04:07:44;19.24;62.35
63976;DHT22;50167;47.958;21.780;2023-05-15T04:10:10;19.35;62.26
63976;DHT22;50167;47.958;21.780;2023-05-15T04:12:37;19.44;61.82
63976;DHT22;50167;47.958;21.780;2023-05-15T04:17:48;19.50;61.62
63976;DHT22;50167;47.958;21.780;2023-05-15T04:20:17;19.49;61.57
63976;DHT22;50167;47.958;21.780;2023-05-15T04:22:44;19.48;61.43
63976;DHT22;50167;47.958;21.780;2023-05-15T04:25:12;19.44;61.37
63976;DHT22;50167;47.958;21.780;2023-05-15T04:27:40;19.38;60.89
63976;DHT22;50167;47.958;21.780;2023-05-15T04:30:08;19.28;61.26
63976;DHT22;50167;47.958;21.780;2023-05-15T04:32:35;19.17;61.43
63976;DHT22;50167;47.958;21.780;2023-05-15T04:35:04;19.25;61.75
63976;DHT22;50167;47.958;21.780;2023-05-15T04:37:31;19.49;61.53
63976;DHT22;50167;47.958;21.780;2023-05-15T04:39:57;19.65;61.26
63976;DHT22;50167;47.958;21.780;2023-05-15T04:42:23;19.83;60.73
63976;DHT22;50167;47.958;21.780;2023-05-15T04:44:49;19.90;60.21
63976;DHT22;50167;47.958;21.780;2023-05-15T04:47:15;19.93;60.13
63976;DHT22;50167;47.958;21.780;2023-05-15T04:49:41;19.94;59.86
63976;DHT22;50167;47.958;21.780;2023-05-15T04:52:08;19.91;59.96
63976;DHT22;50167;47.958;21.780;2023-05-15T04:54:34;19.86;60.11
63976;DHT22;50167;47.958;21.780;2023-05-15T04:57:00;19.86;60.20
63976;DHT22;50167;47.958;21.780;2023-05-15T04:59:26;19.87;59.93
63976;DHT22;50167;47.958;21.780;2023-05-15T05:01:55;19.91;59.81
63976;DHT22;50167;47.958;21.780;2023-05-15T05:04:21;20.01;60.00
63976;DHT22;50167;47.958;21.780;2023-05-15T05:06:48;20.11;59.80
63976;DHT22;50167;47.958;21.780;2023-05-15T05:09:14;20.18;59.48
63976;DHT22;50167;47.958;21.780;2023-05-15T05:11:41;19.73;59.15
63976;DHT22;50167;47.958;21.780;2023-05-15T05:14:11;18.67;61.07
63976;DHT22;50167;47.958;21.780;2023-05-15T05:16:37;17.85;63.00
63976;DHT22;50167;47.958;21.780;2023-05-15T05:19:04;17.84;65.37
63976;DHT22;50167;47.958;21.780;2023-05-15T05:21:31;18.45;65.02
63976;DHT22;50167;47.958;21.780;2023-05-15T05:23:58;18.81;64.03
63976;DHT22;50167;47.958;21.780;2023-05-15T05:26:25;19.04;63.18
63976;DHT22;50167;47.958;21.780;2023-05-15T05:28:51;19.17;62.80
63976;DHT22;50167;47.958;21.780;2023-05-15T05:31:19;19.38;62.50
63976;DHT22;50167;47.958;21.780;2023-05-15T05:33:46;19.55;61.83
63976;DHT22;50167;47.958;21.780;2023-05-15T05:36:14;19.76;61.64
63976;DHT22;50167;47.958;21.780;2023-05-15T05:38:41;20.04;60.77
63976;DHT22;50167;47.958;21.780;2023-05-15T05:41:08;20.23;60.16
63976;DHT22;50167;47.958;21.780;2023-05-15T05:43:34;20.46;59.69
63976;DHT22;50167;47.958;21.780;2023-05-15T05:46:01;20.75;59.11
63976;DHT22;50167;47.958;21.780;2023-05-15T05:48:27;20.29;57.88
63976;DHT22;50167;47.958;21.780;2023-05-15T05:50:54;19.24;59.53
63976;DHT22;50167;47.958;21.780;2023-05-15T05:53:21;18.36;61.61
63976;DHT22;50167;47.958;21.780;2023-05-15T05:55:47;17.73;63.68
63976;DHT22;50167;47.958;21.780;2023-05-15T05:58:13;17.95;65.60
63976;DHT22;50167;47.958;21.780;2023-05-15T06:00:42;18.70;64.84
63976;DHT22;50167;47.958;21.780;2023-05-15T06:03:08;19.29;63.57
63976;DHT22;50167;47.958;21.780;2023-05-15T06:05:34;19.66;62.20
63976;DHT22;50167;47.958;21.780;2023-05-15T06:08:01;19.88;61.49
63976;DHT22;50167;47.958;21.780;2023-05-15T06:10:29;20.00;60.70
63976;DHT22;50167;47.958;21.780;2023-05-15T06:12:56;20.11;60.66
63976;DHT22;50167;47.958;21.780;2023-05-15T06:15:22;20.25;59.55
63976;DHT22;50167;47.958;21.780;2023-05-15T06:17:48;20.13;59.16
63976;DHT22;50167;47.958;21.780;2023-05-15T06:20:14;19.25;59.95
63976;DHT22;50167;47.958;21.780;2023-05-15T06:22:41;18.50;62.45
63976;DHT22;50167;47.958;21.780;2023-05-15T06:25:08;18.66;63.72
63976;DHT22;50167;47.958;21.780;2023-05-15T06:27:36;19.55;62.35
63976;DHT22;50167;47.958;21.780;2023-05-15T06:30:03;20.15;60.49
63976;DHT22;50167;47.958;21.780;2023-05-15T06:32:30;20.62;59.26
63976;DHT22;50167;47.958;21.780;2023-05-15T06:34:58;20.34;57.77
63976;DHT22;50167;47.958;21.780;2023-05-15T06:41:24;18.35;61.66
63976;DHT22;50167;47.958;21.780;2023-05-15T06:43:50;17.95;63.74
63976;DHT22;50167;47.958;21.780;2023-05-15T06:46:17;18.55;65.09
63976;DHT22;50167;47.958;21.780;2023-05-15T06:48:44;19.78;62.63
63976;DHT22;50167;47.958;21.780;2023-05-15T06:51:10;20.60;60.56
63976;DHT22;50167;47.958;21.780;2023-05-15T06:53:36;21.06;59.03
63976;DHT22;50167;47.958;21.780;2023-05-15T06:56:03;20.83;57.40
63976;DHT22;50167;47.958;21.780;2023-05-15T07:02:29;18.83;61.24
63976;DHT22;50167;47.958;21.780;2023-05-15T07:04:55;18.29;62.09
63976;DHT22;50167;47.958;21.780;2023-05-15T07:07:22;18.50;63.74
63976;DHT22;50167;47.958;21.780;2023-05-15T07:09:48;19.44;62.44
63976;DHT22;50167;47.958;21.780;2023-05-15T07:12:15;20.04;61.47
63976;DHT22;50167;47.958;21.780;2023-05-15T07:14:41;20.32;59.73
63976;DHT22;50167;47.958;21.780;2023-05-15T07:17:07;20.05;58.99
63976;DHT22;50167;47.958;21.780;2023-05-15T07:19:46;19.11;60.69
63976;DHT22;50167;47.958;21.780;2023-05-15T07:22:12;18.32;61.96
63976;DHT22;50167;47.958;21.780;2023-05-15T07:24:38;18.48;64.27
63976;DHT22;50167;47.958;21.780;2023-05-15T07:27:05;19.42;62.63
63976;DHT22;50167;47.958;21.780;2023-05-15T07:29:31;19.96;61.45
63976;DHT22;50167;47.958;21.780;2023-05-15T07:31:57;20.23;59.99
63976;DHT22;50167;47.958;21.780;2023-05-15T07:34:24;20.48;58.87
63976;DHT22;50167;47.958;21.780;2023-05-15T07:36:55;20.14;58.05
63976;DHT22;50167;47.958;21.780;2023-05-15T07:39:21;19.31;59.99
63976;DHT22;50167;47.958;21.780;2023-05-15T07:41:47;18.64;61.27
63976;DHT22;50167;47.958;21.780;2023-05-15T07:44:13;18.15;62.63
63976;DHT22;50167;47.958;21.780;2023-05-15T07:46:39;18.59;64.83
63976;DHT22;50167;47.958;21.780;2023-05-15T07:49:06;19.55;62.52
63976;DHT22;50167;47.958;21.780;2023-05-15T07:51:32;20.17;60.33
63976;DHT22;50167;47.958;21.780;2023-05-15T07:53:58;20.42;59.03
63976;DHT22;50167;47.958;21.780;2023-05-15T07:56:24;20.10;58.45
63976;DHT22;50167;47.958;21.780;2023-05-15T07:58:50;19.22;59.40
63976;DHT22;50167;47.958;21.780;2023-05-15T08:01:17;18.53;61.16
63976;DHT22;50167;47.958;21.780;2023-05-15T08:03:43;18.00;62.74
63976;DHT22;50167;47.958;21.780;2023-05-15T08:06:09;18.31;65.20
63976;DHT22;50167;47.958;21.780;2023-05-15T08:08:35;19.17;63.67
63976;DHT22;50167;47.958;21.780;2023-05-15T08:11:01;19.66;60.69
63976;DHT22;50167;47.958;21.780;2023-05-15T08:13:28;19.83;60.56
63976;DHT22;50167;47.958;21.780;2023-05-15T08:15:54;19.86;60.37
63976;DHT22;50167;47.958;21.780;2023-05-15T08:18:20;20.08;60.35
63976;DHT22;50167;47.958;21.780;2023-05-15T08:23:31;20.07;58.31
63976;DHT22;50167;47.958;21.780;2023-05-15T08:25:57;19.19;60.19
63976;DHT22;50167;47.958;21.780;2023-05-15T08:28:24;18.58;62.03
63976;DHT22;50167;47.958;21.780;2023-05-15T08:30:50;18.73;64.17
63976;DHT22;50167;47.958;21.780;2023-05-15T08:33:16;19.42;63.11
63976;DHT22;50167;47.958;21.780;2023-05-15T08:35:42;19.83;61.20
63976;DHT22;50167;47.958;21.780;2023-05-15T08:38:09;20.08;60.78
63976;DHT22;50167;47.958;21.780;2023-05-15T08:40:35;20.28;60.19
63976;DHT22;50167;47.958;21.780;2023-05-15T08:43:16;20.46;59.49
63976;DHT22;50167;47.958;21.780;2023-05-15T08:45:41;20.23;59.00
63976;DHT22;50167;47.958;21.780;2023-05-15T08:48:12;19.49;60.19
63976;DHT22;50167;47.958;21.780;2023-05-15T08:50:38;18.90;60.96
63976;DHT22;50167;47.958;21.780;2023-05-15T08:53:05;18.49;62.79
63976;DHT22;50167;47.958;21.780;2023-05-15T08:55:32;18.93;64.92
63976;DHT22;50167;47.958;21.780;2023-05-15T08:57:59;19.77;62.84
63976;DHT22;50167;47.958;21.780;2023-05-15T09:00:26;20.15;61.22
63976;DHT22;50167;47.958;21.780;2023-05-15T09:02:53;20.58;59.70
63976;DHT22;50167;47.958;21.780;2023-05-15T09:05:19;20.83;58.61
63976;DHT22;50167;47.958;21.780;2023-05-15T09:07:47;20.56;58.17
63976;DHT22;50167;47.958;21.780;2023-05-15T09:10:14;19.86;60.18
63976;DHT22;50167;47.958;21.780;2023-05-15T09:12:43;19.22;60.96
63976;DHT22;50167;47.958;21.780;2023-05-15T09:15:15;18.79;63.06
63976;DHT22;50167;47.958;21.780;2023-05-15T09:17:44;19.31;64.03
63976;DHT22;50167;47.958;21.780;2023-05-15T09:20:36;20.43;61.62
63976;DHT22;50167;47.958;21.780;2023-05-15T09:23:04;21.21;58.91
63976;DHT22;50167;47.958;21.780;2023-05-15T09:25:40;21.06;57.32
63976;DHT22;50167;47.958;21.780;2023-05-15T09:28:10;20.27;58.92
63976;DHT22;50167;47.958;21.780;2023-05-15T09:30:41;19.69;59.54
63976;DHT22;50167;47.958;21.780;2023-05-15T09:33:08;19.21;61.35
63976;DHT22;50167;47.958;21.780;2023-05-15T09:35:37;18.86;62.02
63976;DHT22;50167;47.958;21.780;2023-05-15T09:38:10;18.55;63.06
63976;DHT22;50167;47.958;21.780;2023-05-15T09:40:38;19.25;64.20
63976;DHT22;50167;47.958;21.780;2023-05-15T09:43:05;20.49;62.01
63976;DHT22;50167;47.958;21.780;2023-05-15T09:45:31;21.25;59.28
63976;DHT22;50167;47.958;21.780;2023-05-15T09:48:04;21.30;56.74
63976;DHT22;50167;47.958;21.780;2023-05-15T09:50:37;20.62;57.41
63976;DHT22;50167;47.958;21.780;2023-05-15T09:53:04;20.05;59.28
63976;DHT22;50167;47.958;21.780;2023-05-15T09:55:32;19.67;60.59
63976;DHT22;50167;47.958;21.780;2023-05-15T09:58:11;19.34;61.58
63976;DHT22;50167;47.958;21.780;2023-05-15T10:00:39;19.08;62.56
63976;DHT22;50167;47.958;21.780;2023-05-15T10:03:07;19.73;63.25
63976;DHT22;50167;47.958;21.780;2023-05-15T10:05:33;20.90;60.97
63976;DHT22;50167;47.958;21.780;2023-05-15T10:08:00;21.64;58.50
63976;DHT22;50167;47.958;21.780;2023-05-15T10:10:28;21.57;57.01
63976;DHT22;50167;47.958;21.780;2023-05-15T10:12:57;20.79;58.19
63976;DHT22;50167;47.958;21.780;2023-05-15T10:15:24;20.15;59.15
63976;DHT22;50167;47.958;21.780;2023-05-15T10:17:52;19.60;60.90
63976;DHT22;50167;47.958;21.780;2023-05-15T10:20:21;19.17;62.48
63976;DHT22;50167;47.958;21.780;2023-05-15T10:22:52;19.72;63.38
63976;DHT22;50167;47.958;21.780;2023-05-15T10:25:40;20.71;60.55
63976;DHT22;50167;47.958;21.780;2023-05-15T10:28:11;21.33;58.37
63976;DHT22;50167;47.958;21.780;2023-05-15T10:30:38;21.03;58.23
63976;DHT22;50167;47.958;21.780;2023-05-15T10:33:06;20.28;59.91
63976;DHT22;50167;47.958;21.780;2023-05-15T10:35:34;19.55;62.14
63976;DHT22;50167;47.958;21.780;2023-05-15T10:38:04;19.25;63.65
63976;DHT22;50167;47.958;21.780;2023-05-15T10:40:32;20.03;61.82
63976;DHT22;50167;47.958;21.780;2023-05-15T10:42:59;20.73;59.53
63976;DHT22;50167;47.958;21.780;2023-05-15T10:45:27;20.64;58.88
63976;DHT22;50167;47.958;21.780;2023-05-15T10:47:55;19.88;60.90
63976;DHT22;50167;47.958;21.780;2023-05-15T10:50:21;19.22;62.84
63976;DHT22;50167;47.958;21.780;2023-05-15T10:52:54;19.55;62.81
63976;DHT22;50167;47.958;21.780;2023-05-15T10:55:22;20.20;60.75
63976;DHT22;50167;47.958;21.780;2023-05-15T10:57:48;20.52;60.14
63976;DHT22;50167;47.958;21.780;2023-05-15T11:00:25;20.48;59.90
63976;DHT22;50167;47.958;21.780;2023-05-15T11:02:52;19.73;61.43
63976;DHT22;50167;47.958;21.780;2023-05-15T11:05:20;19.07;63.81
63976;DHT22;50167;47.958;21.780;2023-05-15T11:10:48;20.08;62.99
63976;DHT22;50167;47.958;21.780;2023-05-15T11:13:14;20.36;62.08
63976;DHT22;50167;47.958;21.780;2023-05-15T11:15:46;20.48;62.86
63976;DHT22;50167;47.958;21.780;2023-05-15T11:18:12;20.58;63.56
63976;DHT22;50167;47.958;21.780;2023-05-15T11:23:22;20.71;61.97
63976;DHT22;50167;47.958;21.780;2023-05-15T11:25:54;20.72;62.17
63976;DHT22;50167;47.958;21.780;2023-05-15T11:28:22;20.72;63.59
63976;DHT22;50167;47.958;21.780;2023-05-15T11:30:58;20.79;62.45
63976;DHT22;50167;47.958;21.780;2023-05-15T11:33:21;20.66;63.44
63976;DHT22;50167;47.958;21.780;2023-05-15T11:35:56;20.69;63.53
63976;DHT22;50167;47.958;21.780;2023-05-15T11:38:23;20.69;64.28
63976;DHT22;50167;47.958;21.780;2023-05-15T11:40:55;20.63;64.63
63976;DHT22;50167;47.958;21.780;2023-05-15T11:43:26;20.72;64.55
63976;DHT22;50167;47.958;21.780;2023-05-15T11:46:07;20.83;64.26
63976;DHT22;50167;47.958;21.780;2023-05-15T11:48:38;20.90;63.80
63976;DHT22;50167;47.958;21.780;2023-05-15T11:51:23;20.90;62.98
63976;DHT22;50167;47.958;21.780;2023-05-15T11:53:54;20.86;63.39
63976;DHT22;50167;47.958;21.780;2023-05-15T11:56:23;20.78;63.97
63976;DHT22;50167;47.958;21.780;2023-05-15T11:58:55;20.79;63.68
63976;DHT22;50167;47.958;21.780;2023-05-15T12:01:22;20.89;64.47
63976;DHT22;50167;47.958;21.780;2023-05-15T12:03:48;20.87;63.70
63976;DHT22;50167;47.958;21.780;2023-05-15T12:06:15;20.97;63.73
63976;DHT22;50167;47.958;21.780;2023-05-15T12:08:42;20.97;64.25
63976;DHT22;50167;47.958;21.780;2023-05-15T12:11:09;20.99;63.06
63976;DHT22;50167;47.958;21.780;2023-05-15T12:13:36;21.06;64.25
63976;DHT22;50167;47.958;21.780;2023-05-15T12:16:03;21.13;63.48
63976;DHT22;50167;47.958;21.780;2023-05-15T12:18:30;21.14;63.61
63976;DHT22;50167;47.958;21.780;2023-05-15T12:20:57;21.10;63.49
63976;DHT22;50167;47.958;21.780;2023-05-15T12:23:25;21.18;63.86
63976;DHT22;50167;47.958;21.780;2023-05-15T12:25:57;21.25;63.22
63976;DHT22;50167;47.958;21.780;2023-05-15T12:28:25;21.30;64.00
63976;DHT22;50167;47.958;21.780;2023-05-15T12:30:52;21.37;63.58
63976;DHT22;50167;47.958;21.780;2023-05-15T12:33:19;21.42;63.61
63976;DHT22;50167;47.958;21.780;2023-05-15T12:35:55;21.49;63.82
63976;DHT22;50167;47.958;21.780;2023-05-15T12:38:22;21.51;63.04
63976;DHT22;50167;47.958;21.780;2023-05-15T12:40:52;21.61;63.10
63976;DHT22;50167;47.958;21.780;2023-05-15T12:43:22;21.70;62.61
63976;DHT22;50167;47.958;21.780;2023-05-15T12:45:55;21.78;62.80
63976;DHT22;50167;47.958;21.780;2023-05-15T12:48:19;21.89;62.46
63976;DHT22;50167;47.958;21.780;2023-05-15T12:50:46;21.83;62.40
63976;DHT22;50167;47.958;21.780;2023-05-15T12:53:13;21.91;62.31
63976;DHT22;50167;47.958;21.780;2023-05-15T12:55:44;21.91;62.05
63976;DHT22;50167;47.958;21.780;2023-05-15T12:58:13;21.83;62.01
63976;DHT22;50167;47.958;21.780;2023-05-15T13:00:41;21.86;62.00
63976;DHT22;50167;47.958;21.780;2023-05-15T13:03:09;21.96;61.91
63976;DHT22;50167;47.958;21.780;2023-05-15T13:05:37;21.99;61.91
63976;DHT22;50167;47.958;21.780;2023-05-15T13:08:05;22.02;61.64
63976;DHT22;50167;47.958;21.780;2023-05-15T13:10:35;22.07;61.70
63976;DHT22;50167;47.958;21.780;2023-05-15T13:13:02;22.17;62.02
63976;DHT22;50167;47.958;21.780;2023-05-15T13:15:31;22.20;61.50
63976;DHT22;50167;47.958;21.780;2023-05-15T13:18:10;22.31;61.31
63976;DHT22;50167;47.958;21.780;2023-05-15T13:20:40;22.38;60.78
63976;DHT22;50167;47.958;21.780;2023-05-15T13:23:08;22.35;61.12
63976;DHT22;50167;47.958;21.780;2023-05-15T13:25:35;22.31;61.34
63976;DHT22;50167;47.958;21.780;2023-05-15T13:28:05;22.33;60.97
63976;DHT22;50167;47.958;21.780;2023-05-15T13:30:33;22.31;61.04
63976;DHT22;50167;47.958;21.780;2023-05-15T13:33:00;22.31;61.16
63976;DHT22;50167;47.958;21.780;2023-05-15T13:35:27;22.33;60.99
63976;DHT22;50167;47.958;21.780;2023-05-15T13:37:53;22.34;61.31
63976;DHT22;50167;47.958;21.780;2023-05-15T13:40:21;22.30;61.06
63976;DHT22;50167;47.958;21.780;2023-05-15T13:42:47;22.27;60.98
63976;DHT22;50167;47.958;21.780;2023-05-15T13:45:15;22.27;61.23
63976;DHT22;50167;47.958;21.780;2023-05-15T13:47:42;22.34;60.71
63976;DHT22;50167;47.958;21.780;2023-05-15T13:50:11;22.30;61.25
63976;DHT22;50167;47.958;21.780;2023-05-15T13:52:39;22.25;61.53
63976;DHT22;50167;47.958;21.780;2023-05-15T13:55:07;22.24;61.20
63976;DHT22;50167;47.958;21.780;2023-05-15T13:57:38;22.24;61.00
63976;DHT22;50167;47.958;21.780;2023-05-15T14:00:06;22.25;60.66
63976;DHT22;50167;47.958;21.780;2023-05-15T14:02:32;22.21;60.69
63976;DHT22;50167;47.958;21.780;2023-05-15T14:04:59;22.21;60.45
63976;DHT22;50167;47.958;21.780;2023-05-15T14:07:25;22.24;60.66
63976;DHT22;50167;47.958;21.780;2023-05-15T14:09:52;22.13;60.65
63976;DHT22;50167;47.958;21.780;2023-05-15T14:12:18;22.00;60.67
63976;DHT22;50167;47.958;21.780;2023-05-15T14:14:45;21.96;60.58
63976;DHT22;50167;47.958;21.780;2023-05-15T14:17:11;21.85;61.18
63976;DHT22;50167;47.958;21.780;2023-05-15T14:19:38;21.88;61.35
63976;DHT22;50167;47.958;21.780;2023-05-15T14:22:04;21.89;61.28
63976;DHT22;50167;47.958;21.780;2023-05-15T14:24:31;21.89;60.97
63976;DHT22;50167;47.958;21.780;2023-05-15T14:26:57;21.89;60.99
63976;DHT22;50167;47.958;21.780;2023-05-15T14:29:24;21.89;60.83
63976;DHT22;50167;47.958;21.780;2023-05-15T14:31:52;21.88;61.55
63976;DHT22;50167;47.958;21.780;2023-05-15T14:34:19;21.86;61.28
63976;DHT22;50167;47.958;21.780;2023-05-15T14:36:47;21.86;61.19
63976;DHT22;50167;47.958;21.780;2023-05-15T14:39:14;21.89;61.31
63976;DHT22;50167;47.958;21.780;2023-05-15T14:41:42;21.92;61.24
63976;DHT22;50167;47.958;21.780;2023-05-15T14:44:08;21.92;61.35
63976;DHT22;50167;47.958;21.780;2023-05-15T14:46:35;21.95;60.91
63976;DHT22;50167;47.958;21.780;2023-05-15T14:49:03;21.88;60.89
63976;DHT22;50167;47.958;21.780;2023-05-15T14:51:30;21.91;60.82
63976;DHT22;50167;47.958;21.780;2023-05-15T14:53:56;21.92;61.11
63976;DHT22;50167;47.958;21.780;2023-05-15T14:56:23;21.93;60.88
63976;DHT22;50167;47.958;21.780;2023-05-15T14:58:50;22.00;60.87
63976;DHT22;50167;47.958;21.780;2023-05-15T15:01:18;22.12;60.89
63976;DHT22;50167;47.958;21.780;2023-05-15T15:03:46;22.20;60.43
63976;DHT22;50167;47.958;21.780;2023-05-15T15:06:12;22.21;60.48
63976;DHT22;50167;47.958;21.780;2023-05-15T15:08:39;22.24;60.22
63976;DHT22;50167;47.958;21.780;2023-05-15T15:11:05;22.23;60.19
63976;DHT22;50167;47.958;21.780;2023-05-15T15:13:32;22.17;60.27
63976;DHT22;50167;47.958;21.780;2023-05-15T15:15:58;22.20;60.29
63976;DHT22;50167;47.958;21.780;2023-05-15T15:18:24;22.10;60.10
63976;DHT22;50167;47.958;21.780;2023-05-15T15:20:51;22.07;60.62
63976;DHT22;50167;47.958;21.780;2023-05-15T15:23:17;22.14;60.59
63976;DHT22;50167;47.958;21.780;2023-05-15T15:25:43;22.16;60.22
63976;DHT22;50167;47.958;21.780;2023-05-15T15:28:10;22.24;59.97
63976;DHT22;50167;47.958;21.780;2023-05-15T15:30:36;22.25;60.02
63976;DHT22;50167;47.958;21.780;2023-05-15T15:33:02;22.25;59.89
63976;DHT22;50167;47.958;21.780;2023-05-15T15:35:29;22.19;59.87
63976;DHT22;50167;47.958;21.780;2023-05-15T15:37:58;22.25;60.35
63976;DHT22;50167;47.958;21.780;2023-05-15T15:40:24;22.38;59.77
63976;DHT22;50167;47.958;21.780;2023-05-15T15:42:50;22.44;59.76
63976;DHT22;50167;47.958;21.780;2023-05-15T15:45:17;22.43;59.86
63976;DHT22;50167;47.958;21.780;2023-05-15T15:47:43;21.99;59.86
63976;DHT22;50167;47.958;21.780;2023-05-15T15:50:09;21.00;61.76
63976;DHT22;50167;47.958;21.780;2023-05-15T15:52:36;20.18;64.17
63976;DHT22;50167;47.958;21.780;2023-05-15T15:55:09;20.24;65.54
63976;DHT22;50167;47.958;21.780;2023-05-15T15:57:35;20.91;64.78
63976;DHT22;50167;47.958;21.780;2023-05-15T16:00:21;21.21;64.04